createdAt,value
2022-08-10T00:00:01.178Z,45.92
2022-08-10T00:02:10.029Z,46.33
2022-08-10T00:04:21.323Z,46.48
2022-08-10T00:06:30.089Z,47.08
2022-08-10T00:08:37.998Z,46.97
2022-08-10T00:10:45.853Z,47.14
2022-08-10T00:12:56.844Z,47.61
2022-08-10T00:15:04.880Z,46.84
2022-08-10T00:17:12.737Z,47.05
2022-08-10T00:19:20.728Z,47.16
2022-08-10T00:21:30.719Z,47.24
2022-08-10T00:23:40.150Z,46.90
2022-08-10T00:25:48.461Z,47.10
2022-08-10T00:28:04.051Z,47.13
2022-08-10T00:30:13.559Z,47.04
2022-08-10T00:32:22.702Z,47.12
2022-08-10T00:34:30.756Z,47.24
2022-08-10T00:36:38.548Z,47.69
2022-08-10T00:38:46.317Z,47.93
2022-08-10T00:40:54.301Z,47.93
2022-08-10T00:43:06.210Z,48.64
2022-08-10T00:45:14.485Z,48.57
2022-08-10T00:47:36.909Z,48.09
2022-08-10T00:49:48.408Z,48.33
2022-08-10T00:51:56.472Z,48.41
2022-08-10T00:54:04.918Z,48.72
2022-08-10T00:57:14.301Z,48.63
2022-08-10T00:58:47.781Z,48.66
2022-08-10T01:01:23.525Z,48.72
2022-08-10T01:04:39.886Z,49.13
2022-08-10T01:06:15.160Z,49.10
2022-08-10T01:08:31.945Z,49.29
2022-08-10T01:10:49.446Z,49.60
2022-08-10T01:13:04.239Z,49.42
2022-08-10T01:15:25.248Z,49.55
2022-08-10T01:17:49.774Z,49.66
2022-08-10T01:20:05.237Z,49.44
2022-08-10T01:22:47.883Z,49.21
2022-08-10T01:25:21.142Z,49.47
2022-08-10T01:27:34.981Z,49.72
2022-08-10T01:29:56.989Z,50.20
2022-08-10T01:32:09.101Z,50.14
2022-08-10T01:34:23.526Z,49.84
2022-08-10T01:36:36.542Z,49.78
2022-08-10T01:38:48.775Z,49.92
2022-08-10T01:40:59.303Z,49.92
2022-08-10T01:43:10.473Z,49.93
2022-08-10T01:45:25.175Z,50.06
2022-08-10T01:47:48.902Z,50.21
2022-08-10T01:50:02.429Z,50.45
2022-08-10T01:52:10.646Z,50.29
2022-08-10T01:54:28.984Z,50.72
2022-08-10T01:56:40.161Z,50.42
2022-08-10T01:58:52.796Z,50.53
2022-08-10T02:01:05.648Z,50.61
2022-08-10T02:03:19.222Z,50.91
2022-08-10T02:05:29.536Z,50.75
2022-08-10T02:07:40.548Z,51.01
2022-08-10T02:09:52.302Z,50.82
2022-08-10T02:12:08.615Z,51.12
2022-08-10T02:14:17.842Z,51.23
2022-08-10T02:16:29.739Z,51.29
2022-08-10T02:18:39.205Z,51.39
2022-08-10T02:20:49.854Z,51.66
2022-08-10T02:23:02.284Z,51.86
2022-08-10T02:25:39.800Z,51.96
2022-08-10T02:27:41.355Z,52.15
2022-08-10T02:29:50.120Z,52.21
2022-08-10T02:32:00.556Z,52.47
2022-08-10T02:34:09.471Z,52.30
2022-08-10T02:36:19.693Z,52.16
2022-08-10T02:38:59.627Z,52.42
2022-08-10T02:45:13.917Z,52.44
2022-08-10T02:45:22.914Z,52.67
2022-08-10T02:46:28.023Z,52.90
2022-08-10T02:48:45.519Z,53.14
2022-08-10T02:51:00.793Z,53.40
2022-08-10T02:53:54.879Z,53.21
2022-08-10T02:55:48.399Z,53.07
2022-08-10T02:58:13.891Z,53.22
2022-08-10T03:00:27.514Z,53.02
2022-08-10T03:02:39.886Z,53.19
2022-08-10T03:04:58.479Z,53.12
2022-08-10T03:07:45.193Z,52.82
2022-08-10T03:10:17.041Z,53.42
2022-08-10T03:12:38.217Z,53.07
2022-08-10T03:14:49.288Z,53.45
2022-08-10T03:16:59.442Z,53.14
2022-08-10T03:20:34.848Z,53.16
2022-08-10T03:21:42.298Z,53.53
2022-08-10T03:23:52.724Z,53.94
2022-08-10T03:26:02.778Z,54.53
2022-08-10T03:28:11.519Z,53.77
2022-08-10T03:30:32.442Z,53.64
2022-08-10T03:32:42.748Z,53.72
2022-08-10T03:34:51.194Z,53.25
2022-08-10T03:37:01.793Z,53.17
2022-08-10T03:39:09.792Z,53.27
2022-08-10T03:41:21.320Z,53.48
2022-08-10T03:43:29.871Z,53.79
2022-08-10T03:45:54.844Z,54.31
2022-08-10T03:48:10.071Z,54.36
2022-08-10T03:50:28.904Z,54.20
2022-08-10T03:52:51.090Z,54.41
2022-08-10T03:54:59.640Z,54.60
2022-08-10T03:57:07.847Z,55.42
2022-08-10T03:59:19.671Z,56.44
2022-08-10T04:02:45.761Z,56.10
2022-08-10T04:04:11.513Z,55.44
2022-08-10T04:06:22.905Z,55.49
2022-08-10T04:08:34.580Z,55.35
2022-08-10T04:10:42.389Z,54.97
2022-08-10T04:12:50.831Z,55.19
2022-08-10T04:14:58.965Z,56.26
2022-08-10T04:17:09.671Z,57.28
2022-08-10T04:19:23.185Z,58.01
2022-08-10T04:21:37.677Z,58.19
2022-08-10T04:23:54.044Z,59.34
2022-08-10T04:26:02.145Z,59.19
2022-08-10T04:28:10.395Z,60.38
2022-08-10T04:30:18.673Z,60.69
2022-08-10T04:32:29.099Z,60.24
2022-08-10T04:34:38.515Z,61.09
2022-08-10T04:36:47.674Z,60.89
2022-08-10T04:38:58.724Z,60.83
2022-08-10T04:41:07.063Z,58.92
2022-08-10T04:43:15.175Z,56.96
2022-08-10T04:45:23.244Z,53.25
2022-08-10T04:48:00.728Z,51.12
2022-08-10T04:50:11.722Z,47.95
2022-08-10T04:52:20.295Z,46.32
2022-08-10T04:54:30.679Z,42.65
2022-08-10T04:56:40.151Z,40.88
2022-08-10T04:58:48.037Z,38.64
2022-08-10T05:00:55.961Z,37.05
2022-08-10T05:03:03.922Z,35.70
2022-08-10T05:05:12.874Z,32.61
2022-08-10T05:07:20.741Z,31.17
2022-08-10T05:10:00.533Z,29.48
2022-08-10T05:12:04.900Z,27.81
2022-08-10T05:14:28.029Z,28.67
2022-08-10T05:16:48.067Z,29.02
2022-08-10T05:18:58.105Z,28.98
2022-08-10T05:21:12.039Z,32.10
2022-08-10T05:23:51.838Z,34.67
2022-08-10T05:26:02.950Z,35.54
2022-08-10T05:28:13.844Z,34.10
2022-08-10T05:30:22.923Z,32.55
2022-08-10T05:32:32.117Z,33.86
2022-08-10T05:34:40.067Z,34.12
2022-08-10T05:36:48.819Z,32.80
2022-08-10T05:38:57.510Z,32.06
2022-08-10T05:41:08.705Z,30.98
2022-08-10T05:43:17.265Z,29.11
2022-08-10T05:45:29.702Z,29.52
2022-08-10T05:48:55.006Z,29.51
2022-08-10T05:50:05.896Z,31.36
2022-08-10T05:52:13.979Z,29.57
2022-08-10T05:54:27.113Z,29.72
2022-08-10T05:56:57.035Z,31.76
2022-08-10T05:59:08.932Z,28.41
2022-08-10T06:01:19.647Z,28.48
2022-08-10T06:03:30.540Z,27.82
2022-08-10T06:05:43.420Z,30.23
2022-08-10T06:07:57.716Z,27.47
2022-08-10T06:10:10.180Z,25.76
2022-08-10T06:12:27.009Z,29.13
2022-08-10T06:15:05.162Z,26.98
2022-08-10T06:17:14.919Z,24.50
2022-08-10T06:19:23.694Z,24.12
2022-08-10T06:21:31.897Z,23.79
2022-08-10T06:23:40.684Z,26.95
2022-08-10T06:26:10.103Z,28.99
2022-08-10T06:28:22.436Z,29.20
2022-08-10T06:30:31.705Z,30.42
2022-08-10T06:32:40.071Z,29.87
2022-08-10T06:34:51.014Z,28.83
2022-08-10T06:37:02.008Z,28.89
2022-08-10T06:39:31.819Z,27.90
2022-08-10T06:42:15.083Z,25.06
2022-08-10T06:44:23.441Z,24.83
2022-08-10T06:46:33.328Z,27.54
2022-08-10T06:48:50.745Z,25.89
2022-08-10T06:51:03.595Z,24.47
2022-08-10T06:53:15.039Z,24.29
2022-08-10T06:55:39.972Z,26.24
2022-08-10T06:57:59.992Z,27.74
2022-08-10T07:00:20.227Z,28.34
2022-08-10T07:02:32.936Z,30.29
2022-08-10T07:04:47.172Z,29.97
2022-08-10T07:06:56.669Z,31.00
2022-08-10T07:09:08.201Z,29.46
2022-08-10T07:11:24.828Z,27.67
2022-08-10T07:14:16.733Z,28.86
2022-08-10T07:16:14.102Z,29.98
2022-08-10T07:18:24.759Z,29.80
2022-08-10T07:20:37.445Z,29.36
2022-08-10T07:23:27.034Z,28.89
2022-08-10T07:25:17.891Z,29.14
2022-08-10T07:27:27.670Z,29.08
2022-08-10T07:29:57.626Z,28.86
2022-08-10T07:32:19.039Z,28.67
2022-08-10T07:34:30.016Z,29.22
2022-08-10T07:36:39.679Z,30.26
2022-08-10T07:38:47.935Z,29.28
2022-08-10T07:41:01.264Z,29.87
2022-08-10T07:43:11.109Z,28.11
2022-08-10T07:45:20.653Z,28.95
2022-08-10T07:47:46.187Z,28.72
2022-08-10T07:50:06.029Z,28.18
2022-08-10T07:52:14.414Z,28.88
2022-08-10T07:54:23.593Z,28.31
2022-08-10T07:56:48.902Z,29.00
2022-08-10T07:59:04.487Z,32.01
2022-08-10T08:01:12.459Z,33.44
2022-08-10T08:03:25.973Z,32.96
2022-08-10T08:05:58.148Z,33.68
2022-08-10T08:08:04.311Z,35.48
2022-08-10T08:10:15.144Z,36.04
2022-08-10T08:12:23.263Z,36.66
2022-08-10T08:14:32.710Z,36.83
2022-08-10T08:16:44.551Z,36.74
2022-08-10T08:24:05.992Z,36.19
2022-08-10T08:24:28.766Z,36.49
2022-08-10T08:26:25.489Z,35.43
2022-08-10T08:28:39.399Z,35.60
2022-08-10T08:30:49.454Z,36.36
2022-08-10T08:32:59.359Z,36.75
2022-08-10T08:35:12.380Z,36.21
2022-08-10T08:38:32.296Z,35.65
2022-08-10T08:39:50.402Z,35.40
2022-08-10T08:42:15.907Z,35.85
2022-08-10T08:44:34.998Z,35.65
2022-08-10T08:46:59.354Z,34.88
2022-08-10T08:50:05.059Z,35.58
2022-08-10T08:52:18.181Z,34.89
2022-08-10T08:54:42.158Z,33.66
2022-08-10T08:57:01.233Z,34.16
2022-08-10T08:59:28.841Z,34.44
2022-08-10T09:01:53.061Z,34.31
2022-08-10T09:04:27.831Z,34.35
2022-08-10T09:06:55.202Z,33.39
2022-08-10T09:09:24.034Z,33.91
2022-08-10T09:11:45.761Z,32.78
2022-08-10T09:14:02.488Z,31.64
2022-08-10T09:16:26.128Z,31.63
2022-08-10T09:18:42.964Z,30.74
2022-08-10T09:20:57.033Z,29.85
2022-08-10T09:23:12.644Z,30.03
2022-08-10T09:25:27.388Z,30.05
2022-08-10T09:27:43.537Z,29.05
2022-08-10T09:29:58.750Z,29.42
2022-08-10T09:36:16.586Z,27.68
2022-08-10T09:36:22.450Z,26.72
2022-08-10T09:37:39.910Z,28.60
2022-08-10T09:41:00.229Z,28.09
2022-08-10T09:43:02.197Z,27.83
2022-08-10T09:45:23.595Z,27.47
2022-08-10T09:48:01.829Z,27.21
2022-08-10T09:50:21.001Z,26.35
2022-08-10T09:52:38.931Z,24.79
2022-08-10T09:55:06.698Z,25.33
2022-08-10T09:57:44.352Z,24.83
2022-08-10T10:00:02.798Z,24.33
2022-08-10T10:02:21.517Z,24.00
2022-08-10T10:04:43.760Z,23.68
2022-08-10T10:06:58.374Z,23.42
2022-08-10T10:09:11.982Z,25.09
2022-08-10T10:11:23.940Z,25.29
2022-08-10T10:13:54.683Z,23.77
2022-08-10T10:16:26.322Z,24.70
2022-08-10T10:18:45.937Z,25.15
2022-08-10T10:21:23.898Z,25.72
2022-08-10T10:24:21.691Z,26.29
2022-08-10T10:26:44.282Z,26.78
2022-08-10T10:31:36.735Z,25.30
2022-08-10T10:34:05.240Z,26.70
2022-08-10T10:36:14.703Z,26.69
2022-08-10T10:38:27.040Z,26.72
2022-08-10T10:40:42.723Z,27.61
2022-08-10T10:43:03.861Z,27.47
2022-08-10T10:45:21.078Z,27.79
2022-08-10T10:47:48.403Z,26.63
2022-08-10T10:50:06.398Z,27.07
2022-08-10T10:52:28.937Z,27.58
2022-08-10T10:54:47.271Z,27.43
2022-08-10T10:57:04.315Z,26.41
2022-08-10T10:59:56.181Z,26.68
2022-08-10T11:02:00.998Z,26.96
2022-08-10T11:04:25.404Z,27.00
2022-08-10T11:06:47.034Z,26.84
2022-08-10T11:09:08.143Z,26.31
2022-08-10T11:12:00.859Z,26.90
2022-08-10T11:14:27.631Z,27.23
2022-08-10T11:16:43.487Z,27.42
2022-08-10T11:19:04.719Z,28.00
2022-08-10T11:21:23.045Z,28.10
2022-08-10T11:23:39.370Z,28.56
2022-08-10T11:25:55.108Z,28.37
2022-08-10T11:28:12.879Z,27.70
2022-08-10T11:30:25.158Z,27.99
2022-08-10T11:32:44.453Z,27.84
2022-08-10T11:35:11.069Z,27.98
2022-08-10T11:38:32.387Z,27.63
2022-08-10T11:40:15.826Z,28.26
2022-08-10T11:42:36.206Z,27.58
2022-08-10T11:44:52.416Z,26.95
2022-08-10T11:47:13.115Z,26.36
2022-08-10T11:49:33.710Z,27.37
2022-08-10T11:51:47.966Z,27.93
2022-08-10T11:54:04.901Z,27.51
2022-08-10T11:56:19.464Z,27.54
2022-08-10T11:58:47.136Z,27.66
2022-08-10T12:00:58.948Z,27.57
2022-08-10T12:03:11.684Z,27.61
2022-08-10T12:05:21.886Z,27.76
2022-08-10T12:10:03.727Z,26.91
2022-08-10T12:10:13.561Z,27.90
2022-08-10T12:12:24.121Z,27.80
2022-08-10T12:14:39.659Z,27.29
2022-08-10T12:16:55.589Z,27.72
2022-08-10T12:19:07.582Z,28.27
2022-08-10T12:21:22.114Z,27.28
2022-08-10T12:23:39.409Z,27.47
2022-08-10T12:25:59.502Z,27.45
2022-08-10T12:28:14.571Z,27.63
2022-08-10T12:30:29.444Z,27.36
2022-08-10T12:32:46.474Z,28.35
2022-08-10T12:35:06.646Z,27.58
2022-08-10T12:37:24.029Z,27.36
2022-08-10T12:39:39.062Z,27.32
2022-08-10T12:41:56.395Z,27.66
2022-08-10T12:44:14.960Z,27.43
2022-08-10T12:46:29.893Z,27.02
2022-08-10T12:48:42.393Z,27.52
2022-08-10T12:50:56.540Z,27.40
2022-08-10T12:53:14.418Z,26.88
2022-08-10T12:55:24.222Z,27.72
2022-08-10T12:57:39.307Z,26.92
2022-08-10T12:59:51.031Z,26.54
2022-08-10T13:02:06.571Z,26.52
2022-08-10T13:04:24.395Z,27.10
2022-08-10T13:06:34.535Z,27.41
2022-08-10T13:08:56.453Z,27.22
2022-08-10T13:12:37.362Z,26.41
2022-08-10T13:13:42.716Z,26.62
2022-08-10T13:15:53.504Z,26.62
2022-08-10T13:18:18.874Z,26.15
2022-08-10T13:20:31.547Z,26.12
2022-08-10T13:22:43.129Z,26.32
2022-08-10T13:24:55.552Z,26.63
2022-08-10T13:27:26.103Z,25.97
2022-08-10T13:29:48.983Z,26.12
2022-08-10T13:32:10.537Z,25.92
2022-08-10T13:34:43.677Z,26.33
2022-08-10T13:36:54.794Z,26.26
2022-08-10T13:39:05.055Z,27.19
2022-08-10T13:41:14.605Z,25.94
2022-08-10T13:43:24.463Z,26.13
2022-08-10T13:45:36.846Z,26.13
2022-08-10T13:47:49.441Z,25.46
2022-08-10T13:50:03.758Z,26.10
2022-08-10T13:52:15.582Z,25.40
2022-08-10T13:54:27.438Z,25.71
2022-08-10T13:56:37.499Z,25.33
2022-08-10T13:58:47.637Z,26.10
2022-08-10T14:00:59.988Z,26.12
2022-08-10T14:03:13.398Z,26.39
2022-08-10T14:05:30.092Z,26.30
2022-08-10T14:08:00.334Z,26.47
2022-08-10T14:10:12.504Z,26.40
2022-08-10T14:12:32.239Z,26.12
2022-08-10T14:14:45.248Z,26.12
2022-08-10T14:17:05.285Z,26.53
2022-08-10T14:19:16.047Z,25.97
2022-08-10T14:21:24.755Z,25.59
2022-08-10T14:23:33.294Z,25.75
2022-08-10T14:25:51.059Z,25.90
2022-08-10T14:28:03.045Z,25.82
2022-08-10T14:30:19.810Z,26.02
2022-08-10T14:32:32.977Z,25.87
2022-08-10T14:36:16.730Z,25.37
2022-08-10T14:37:20.609Z,26.46
2022-08-10T14:39:32.099Z,26.44
2022-08-10T14:42:01.177Z,25.17
2022-08-10T14:44:15.597Z,25.67
2022-08-10T14:46:27.141Z,25.61
2022-08-10T14:48:44.174Z,25.56
2022-08-10T14:50:57.977Z,25.93
2022-08-10T14:53:10.927Z,26.09
2022-08-10T14:55:21.012Z,26.13
2022-08-10T14:58:20.026Z,25.88
2022-08-10T15:00:22.798Z,25.36
2022-08-10T15:02:38.111Z,25.93
2022-08-10T15:04:55.441Z,25.69
2022-08-10T15:07:12.062Z,25.47
2022-08-10T15:09:25.034Z,25.74
2022-08-10T15:12:13.697Z,25.92
2022-08-10T15:14:34.210Z,26.11
2022-08-10T15:16:37.803Z,25.79
2022-08-10T15:18:58.251Z,25.61
2022-08-10T15:21:17.511Z,25.78
2022-08-10T15:23:35.543Z,25.97
2022-08-10T15:26:11.241Z,25.42
2022-08-10T15:28:22.565Z,26.31
2022-08-10T15:30:54.625Z,26.17
2022-08-10T15:33:21.332Z,26.74
2022-08-10T15:36:03.601Z,26.36
2022-08-10T15:38:18.411Z,26.66
2022-08-10T15:40:32.371Z,26.26
2022-08-10T15:42:55.362Z,25.87
2022-08-10T15:45:07.894Z,26.09
2022-08-10T15:47:23.224Z,26.22
2022-08-10T15:49:39.200Z,26.45
2022-08-10T15:52:02.896Z,24.97
2022-08-10T15:54:17.085Z,25.03
2022-08-10T15:56:31.823Z,25.32
2022-08-10T15:58:51.448Z,26.18
2022-08-10T16:01:05.519Z,26.06
2022-08-10T16:03:39.968Z,25.72
2022-08-10T16:06:02.225Z,26.31
2022-08-10T16:08:15.262Z,25.69
2022-08-10T16:10:38.718Z,26.01
2022-08-10T16:12:59.800Z,25.71
2022-08-10T16:15:14.097Z,25.32
2022-08-10T16:17:54.639Z,26.10
2022-08-10T16:19:59.003Z,25.82
2022-08-10T16:22:33.805Z,25.71
2022-08-10T16:24:40.924Z,25.71
2022-08-10T16:26:55.964Z,25.34
2022-08-10T16:29:08.336Z,25.81
2022-08-10T16:31:21.480Z,25.68
2022-08-10T16:33:52.907Z,25.35
2022-08-10T16:36:09.466Z,25.40
2022-08-10T16:38:21.763Z,25.61
2022-08-10T16:40:32.108Z,26.15
2022-08-10T16:42:45.241Z,25.72
2022-08-10T16:45:00.845Z,25.24
2022-08-10T16:47:11.323Z,25.67
2022-08-10T16:49:21.763Z,25.67
2022-08-10T16:51:30.464Z,25.74
2022-08-10T16:53:47.524Z,26.11
2022-08-10T16:55:58.845Z,25.52
2022-08-10T16:58:11.318Z,25.88
2022-08-10T17:00:22.711Z,25.84
2022-08-10T17:02:35.000Z,26.03
2022-08-10T17:04:47.538Z,25.79
2022-08-10T17:07:00.144Z,26.08
2022-08-10T17:09:15.926Z,26.32
2022-08-10T17:11:27.108Z,26.56
2022-08-10T17:13:39.848Z,26.56
2022-08-10T17:15:53.997Z,27.15
2022-08-10T17:18:07.589Z,27.18
2022-08-10T17:20:30.029Z,26.97
2022-08-10T17:22:44.493Z,27.55
2022-08-10T17:24:58.415Z,27.40
2022-08-10T17:28:05.223Z,27.04
2022-08-10T17:29:57.756Z,26.91
2022-08-10T17:32:20.992Z,26.99
2022-08-10T17:34:36.163Z,27.64
2022-08-10T17:36:48.464Z,27.42
2022-08-10T17:38:58.825Z,27.13
2022-08-10T17:41:13.993Z,27.36
2022-08-10T17:43:46.515Z,28.01
2022-08-10T17:45:56.052Z,27.92
2022-08-10T17:48:08.334Z,27.42
2022-08-10T17:50:17.122Z,27.93
2022-08-10T17:52:29.072Z,28.48
2022-08-10T17:54:44.480Z,27.69
2022-08-10T17:56:55.468Z,28.67
2022-08-10T17:59:15.190Z,28.40
2022-08-10T18:01:40.653Z,28.21
2022-08-10T18:03:55.363Z,28.42
2022-08-10T18:06:07.149Z,28.18
2022-08-10T18:08:22.652Z,28.87
2022-08-10T18:10:33.863Z,29.13
2022-08-10T18:12:47.060Z,28.74
2022-08-10T18:14:57.611Z,28.78
2022-08-10T18:17:14.306Z,29.28
2022-08-10T18:19:24.592Z,28.97
2022-08-10T18:21:33.973Z,29.41
2022-08-10T18:23:52.444Z,29.53
2022-08-10T18:26:05.931Z,29.45
2022-08-10T18:28:21.886Z,30.37
2022-08-10T18:30:32.992Z,30.73
2022-08-10T18:32:51.730Z,30.84
2022-08-10T18:35:05.252Z,30.84
2022-08-10T18:37:22.002Z,30.92
2022-08-10T18:39:33.825Z,32.03
2022-08-10T18:42:00.548Z,31.83
2022-08-10T18:44:19.678Z,33.32
2022-08-10T18:46:31.523Z,33.95
2022-08-10T18:48:52.819Z,33.50
2022-08-10T18:51:06.198Z,34.70
2022-08-10T18:53:19.960Z,34.02
2022-08-10T18:55:39.591Z,33.93
2022-08-10T18:58:35.998Z,35.00
2022-08-10T19:01:04.934Z,34.95
2022-08-10T19:03:30.234Z,34.88
2022-08-10T19:06:12.793Z,35.17
2022-08-10T19:08:52.673Z,35.41
2022-08-10T19:11:08.442Z,35.69
2022-08-10T19:13:30.840Z,34.70
2022-08-10T19:15:47.335Z,33.92
2022-08-10T19:18:09.860Z,33.58
2022-08-10T19:20:29.758Z,33.85
2022-08-10T19:22:51.221Z,34.37
2022-08-10T19:25:06.603Z,34.63
2022-08-10T19:27:25.652Z,35.10
2022-08-10T19:30:11.342Z,34.45
2022-08-10T19:32:23.830Z,35.18
2022-08-10T19:34:43.862Z,34.21
2022-08-10T19:37:05.730Z,34.84
2022-08-10T19:39:28.638Z,34.89
2022-08-10T19:41:45.079Z,34.58
2022-08-10T19:44:02.367Z,35.49
2022-08-10T19:46:28.438Z,35.26
2022-08-10T19:48:47.138Z,35.35
2022-08-10T19:50:59.239Z,35.46
2022-08-10T19:53:25.504Z,35.90
2022-08-10T19:55:44.109Z,36.12
2022-08-10T19:58:01.463Z,36.57
2022-08-10T20:00:18.693Z,36.90
2022-08-10T20:02:35.949Z,37.26
2022-08-10T20:04:58.468Z,37.31
2022-08-10T20:07:23.874Z,37.08
2022-08-10T20:09:41.397Z,36.92
2022-08-10T20:12:01.852Z,37.65
2022-08-10T20:14:21.826Z,36.88
2022-08-10T20:16:34.944Z,37.17
2022-08-10T20:18:47.348Z,36.74
2022-08-10T20:21:02.487Z,37.36
2022-08-10T20:23:23.832Z,37.20
2022-08-10T20:25:35.076Z,37.23
2022-08-10T20:28:01.235Z,37.44
2022-08-10T20:30:14.372Z,37.55
2022-08-10T20:32:27.597Z,37.46
2022-08-10T20:34:45.869Z,37.74
2022-08-10T20:37:01.309Z,37.25
2022-08-10T20:39:19.324Z,37.34
2022-08-10T20:41:32.101Z,37.14
2022-08-10T20:44:06.793Z,37.49
2022-08-10T20:46:25.477Z,37.21
2022-08-10T20:48:58.043Z,37.45
2022-08-10T20:51:11.473Z,37.57
2022-08-10T20:53:25.094Z,37.87
2022-08-10T20:55:52.778Z,37.01
2022-08-10T20:58:28.349Z,36.92
2022-08-10T21:00:51.135Z,36.63
2022-08-10T21:03:20.714Z,36.97
2022-08-10T21:05:42.334Z,36.86
2022-08-10T21:08:03.235Z,37.26
2022-08-10T21:10:26.764Z,37.75
2022-08-10T21:13:04.832Z,37.53
2022-08-10T21:15:28.931Z,38.45
2022-08-10T21:17:51.860Z,37.94
2022-08-10T21:20:18.227Z,38.11
2022-08-10T21:22:42.862Z,37.99
2022-08-10T21:25:03.943Z,38.20
2022-08-10T21:27:27.036Z,38.36
2022-08-10T21:29:55.972Z,38.04
2022-08-10T21:32:12.364Z,38.28
2022-08-10T21:34:38.104Z,38.26
2022-08-10T21:36:50.872Z,37.92
2022-08-10T21:39:09.956Z,38.72
2022-08-10T21:41:57.836Z,38.36
2022-08-10T21:44:30.002Z,38.05
2022-08-10T21:46:59.709Z,38.50
2022-08-10T21:49:47.596Z,38.61
2022-08-10T21:52:24.412Z,39.55
2022-08-10T21:54:57.612Z,39.39
2022-08-10T21:57:24.272Z,40.17
2022-08-10T21:59:56.203Z,39.61
2022-08-10T22:02:21.440Z,40.65
2022-08-10T22:04:49.363Z,41.47
2022-08-10T22:07:14.465Z,42.71
2022-08-10T22:09:43.398Z,41.00
2022-08-10T22:12:10.007Z,40.94
2022-08-10T22:14:49.503Z,40.65
2022-08-10T22:17:59.815Z,40.66
2022-08-10T22:19:58.761Z,41.00
2022-08-10T22:22:28.404Z,42.26
2022-08-10T22:25:16.399Z,44.27
2022-08-10T22:27:47.091Z,44.49
2022-08-10T22:30:23.127Z,42.73
2022-08-10T22:32:54.721Z,42.54
2022-08-10T22:35:39.519Z,41.47
2022-08-10T22:38:11.788Z,41.23
2022-08-10T22:40:35.915Z,42.11
2022-08-10T22:43:10.429Z,41.65
2022-08-10T22:45:33.949Z,42.63
2022-08-10T22:47:54.653Z,42.10
2022-08-10T22:50:03.680Z,41.34
2022-08-10T22:52:24.396Z,40.75
2022-08-10T22:55:03.451Z,41.20
2022-08-10T22:57:29.303Z,41.23
2022-08-10T22:59:37.633Z,41.02
2022-08-10T23:02:08.991Z,41.63
2022-08-10T23:04:24.496Z,41.72
2022-08-10T23:06:34.453Z,42.36
2022-08-10T23:08:47.358Z,42.35
2022-08-10T23:11:04.250Z,42.31
2022-08-10T23:13:26.418Z,42.35
2022-08-10T23:16:12.669Z,43.47
2022-08-10T23:18:44.145Z,42.43
2022-08-10T23:20:56.701Z,43.05
2022-08-10T23:23:09.704Z,43.19
2022-08-10T23:25:21.561Z,43.22
2022-08-10T23:27:40.521Z,44.21
2022-08-10T23:30:09.733Z,44.60
2022-08-10T23:32:21.494Z,45.12
2022-08-10T23:34:32.187Z,44.90
2022-08-10T23:36:43.897Z,44.82
2022-08-10T23:39:26.380Z,44.92
2022-08-10T23:41:39.701Z,45.14
2022-08-10T23:44:04.474Z,48.15
2022-08-10T23:46:17.390Z,46.95
2022-08-10T23:48:30.159Z,47.81
2022-08-10T23:50:58.225Z,48.11
2022-08-10T23:53:13.779Z,48.98
2022-08-10T23:55:28.012Z,48.92
2022-08-10T23:57:39.333Z,48.32
2022-08-10T23:59:59.153Z,47.35
